createdAt,value
2018-09-27T00:00:06.108Z,30.27
2018-09-27T00:02:39.532Z,30.20
2018-09-27T00:05:12.992Z,30.27
2018-09-27T00:07:46.428Z,30.17
2018-09-27T00:10:19.888Z,30.30
2018-09-27T00:12:53.309Z,30.47
2018-09-27T00:15:26.761Z,30.05
2018-09-27T00:18:00.182Z,30.10
2018-09-27T00:20:33.629Z,29.83
2018-09-27T00:23:07.093Z,29.67
2018-09-27T00:25:40.551Z,29.63
2018-09-27T00:28:13.975Z,29.37
2018-09-27T00:30:47.396Z,30.90
2018-09-27T00:33:20.824Z,29.63
2018-09-27T00:35:54.228Z,29.90
2018-09-27T00:38:27.621Z,29.47
2018-09-27T00:41:01.045Z,29.43
2018-09-27T00:43:34.437Z,29.40
2018-09-27T00:46:07.844Z,29.83
2018-09-27T00:48:41.232Z,28.77
2018-09-27T00:51:14.647Z,30.17
2018-09-27T00:53:48.036Z,29.07
2018-09-27T00:56:21.448Z,29.03
2018-09-27T00:58:54.900Z,29.40
2018-09-27T01:01:28.364Z,29.40
2018-09-27T01:04:01.750Z,29.13
2018-09-27T01:06:35.155Z,28.80
2018-09-27T01:09:09.732Z,28.70
2018-09-27T01:11:43.144Z,29.07
2018-09-27T01:14:16.548Z,28.53
2018-09-27T01:16:49.960Z,29.07
2018-09-27T01:19:23.362Z,29.07
2018-09-27T01:21:56.775Z,28.90
2018-09-27T01:24:30.169Z,28.73
2018-09-27T01:27:03.592Z,29.17
2018-09-27T01:29:36.997Z,28.63
2018-09-27T01:32:10.451Z,29.13
2018-09-27T01:34:43.845Z,28.70
2018-09-27T01:37:17.260Z,29.27
2018-09-27T01:39:50.655Z,29.17
2018-09-27T01:42:24.081Z,28.27
2018-09-27T01:44:57.466Z,28.87
2018-09-27T01:47:30.868Z,28.80
2018-09-27T01:50:04.308Z,28.40
2018-09-27T01:52:37.745Z,28.70
2018-09-27T01:55:11.136Z,28.47
2018-09-27T01:57:44.560Z,28.83
2018-09-27T02:00:17.939Z,28.93
2018-09-27T02:02:51.351Z,29.07
2018-09-27T02:05:24.792Z,29.27
2018-09-27T02:07:58.192Z,28.63
2018-09-27T02:10:31.587Z,28.67
2018-09-27T02:13:06.069Z,28.50
2018-09-27T02:15:39.455Z,28.57
2018-09-27T02:18:12.863Z,28.63
2018-09-27T02:20:46.252Z,28.37
2018-09-27T02:23:19.655Z,28.83
2018-09-27T02:25:53.044Z,29.13
2018-09-27T02:28:26.465Z,28.80
2018-09-27T02:30:59.851Z,28.80
2018-09-27T02:33:33.319Z,28.93
2018-09-27T02:36:06.731Z,28.27
2018-09-27T02:38:40.131Z,28.77
2018-09-27T02:41:13.703Z,28.67
2018-09-27T02:43:47.128Z,28.70
2018-09-27T02:46:20.547Z,28.57
2018-09-27T02:48:53.985Z,28.20
2018-09-27T02:51:27.399Z,28.27
2018-09-27T02:54:00.828Z,28.37
2018-09-27T02:56:34.851Z,28.30
2018-09-27T02:59:08.295Z,28.33
2018-09-27T03:01:41.697Z,28.13
2018-09-27T03:04:15.125Z,28.33
2018-09-27T03:06:48.528Z,28.30
2018-09-27T03:09:21.944Z,28.60
2018-09-27T03:11:55.370Z,28.17
2018-09-27T03:14:28.809Z,28.53
2018-09-27T03:17:02.220Z,28.40
2018-09-27T03:19:35.650Z,28.13
2018-09-27T03:22:09.098Z,28.40
2018-09-27T03:24:42.515Z,28.30
2018-09-27T03:27:15.948Z,28.47
2018-09-27T03:29:49.360Z,28.17
2018-09-27T03:32:22.848Z,28.20
2018-09-27T03:34:56.515Z,28.67
2018-09-27T03:37:29.981Z,28.57
2018-09-27T03:40:03.505Z,28.57
2018-09-27T03:42:40.024Z,28.83
2018-09-27T03:45:13.423Z,28.57
2018-09-27T03:47:46.857Z,28.47
2018-09-27T03:50:20.279Z,29.63
2018-09-27T03:52:53.729Z,28.47
2018-09-27T03:55:27.139Z,28.23
2018-09-27T03:58:00.592Z,28.33
2018-09-27T04:00:34.025Z,28.67
2018-09-27T04:03:07.513Z,28.97
2018-09-27T04:05:41.008Z,28.30
2018-09-27T04:08:14.452Z,28.83
2018-09-27T04:10:47.864Z,29.83
2018-09-27T04:13:21.324Z,30.77
2018-09-27T04:15:54.799Z,32.07
2018-09-27T04:18:28.820Z,30.90
2018-09-27T04:21:02.237Z,32.07
2018-09-27T04:23:35.654Z,31.27
2018-09-27T04:26:09.064Z,30.43
2018-09-27T04:28:42.494Z,30.47
2018-09-27T04:31:15.913Z,29.03
2018-09-27T04:33:49.348Z,29.23
2018-09-27T04:36:22.772Z,28.63
2018-09-27T04:38:56.203Z,28.17
2018-09-27T04:41:29.618Z,28.80
2018-09-27T04:44:03.050Z,29.10
2018-09-27T04:46:36.459Z,28.80
2018-09-27T04:49:09.868Z,29.33
2018-09-27T04:51:43.323Z,30.20
2018-09-27T04:54:19.051Z,31.30
2018-09-27T04:56:52.535Z,29.80
2018-09-27T04:59:25.996Z,29.93
2018-09-27T05:01:59.440Z,29.97
2018-09-27T05:04:32.908Z,32.10
2018-09-27T05:07:06.403Z,30.57
2018-09-27T05:09:39.942Z,30.37
2018-09-27T05:12:13.388Z,29.87
2018-09-27T05:14:46.857Z,29.60
2018-09-27T05:17:20.300Z,29.63
2018-09-27T05:19:53.765Z,29.33
2018-09-27T05:22:27.245Z,30.40
2018-09-27T05:25:00.712Z,29.63
2018-09-27T05:27:34.151Z,29.20
2018-09-27T05:30:07.656Z,29.80
2018-09-27T05:32:41.100Z,29.30
2018-09-27T05:35:14.564Z,29.57
2018-09-27T05:37:47.996Z,29.30
2018-09-27T05:40:21.483Z,29.33
2018-09-27T05:42:54.954Z,28.87
2018-09-27T05:45:28.506Z,28.60
2018-09-27T05:48:01.948Z,28.50
2018-09-27T05:50:36.475Z,28.10
2018-09-27T05:53:09.937Z,28.50
2018-09-27T05:55:43.478Z,28.50
2018-09-27T05:58:16.918Z,28.13
2018-09-27T06:00:50.393Z,28.00
2018-09-27T06:03:23.855Z,28.40
2018-09-27T06:05:57.328Z,28.50
2018-09-27T06:08:30.787Z,28.47
2018-09-27T06:11:04.301Z,28.93
2018-09-27T06:13:37.774Z,27.80
2018-09-27T06:16:11.389Z,28.53
2018-09-27T06:18:44.852Z,28.20
2018-09-27T06:21:18.332Z,28.63
2018-09-27T06:23:51.779Z,28.30
2018-09-27T06:26:25.274Z,28.17
2018-09-27T06:28:58.735Z,28.57
2018-09-27T06:31:32.219Z,28.87
2018-09-27T06:34:05.710Z,29.37
2018-09-27T06:36:39.200Z,28.77
2018-09-27T06:39:12.697Z,28.83
2018-09-27T06:41:46.320Z,28.80
2018-09-27T06:44:19.834Z,28.83
2018-09-27T06:46:53.324Z,28.67
2018-09-27T06:49:26.799Z,29.30
2018-09-27T06:52:00.295Z,28.60
2018-09-27T06:54:33.764Z,29.27
2018-09-27T06:57:07.250Z,29.23
2018-09-27T06:59:40.733Z,29.57
2018-09-27T07:02:14.577Z,30.63
2018-09-27T07:04:48.041Z,29.50
2018-09-27T07:07:21.591Z,30.03
2018-09-27T07:09:55.039Z,29.47
2018-09-27T07:12:28.640Z,29.37
2018-09-27T07:15:02.126Z,29.90
2018-09-27T07:17:35.602Z,30.17
2018-09-27T07:20:09.080Z,30.70
2018-09-27T07:22:42.580Z,30.00
2018-09-27T07:25:16.069Z,30.30
2018-09-27T07:27:49.554Z,29.60
2018-09-27T07:30:23.020Z,30.17
2018-09-27T07:32:56.499Z,30.13
2018-09-27T07:35:29.979Z,30.17
2018-09-27T07:38:03.489Z,30.20
2018-09-27T07:40:36.992Z,31.53
2018-09-27T07:43:10.531Z,31.03
2018-09-27T07:45:44.024Z,31.27
2018-09-27T07:48:17.512Z,31.47
2018-09-27T07:50:50.989Z,30.57
2018-09-27T07:53:24.463Z,30.17
2018-09-27T07:55:57.929Z,32.13
2018-09-27T07:58:31.412Z,30.90
2018-09-27T08:01:04.889Z,31.33
2018-09-27T08:03:38.379Z,30.90
2018-09-27T08:06:11.895Z,31.07
2018-09-27T08:08:45.660Z,30.77
2018-09-27T08:11:19.200Z,31.33
2018-09-27T08:13:52.571Z,30.47
2018-09-27T08:16:26.040Z,31.17
2018-09-27T08:18:59.525Z,30.60
2018-09-27T08:21:32.998Z,31.20
2018-09-27T08:24:06.559Z,31.43
2018-09-27T08:26:40.131Z,30.77
2018-09-27T08:29:13.623Z,30.70
2018-09-27T08:31:47.096Z,31.30
2018-09-27T08:34:20.576Z,31.20
2018-09-27T08:36:54.051Z,30.90
2018-09-27T08:39:27.531Z,31.77
2018-09-27T08:42:00.995Z,30.70
2018-09-27T08:44:34.621Z,30.67
2018-09-27T08:47:07.966Z,30.73
2018-09-27T08:49:41.442Z,30.97
2018-09-27T08:52:14.897Z,31.03
2018-09-27T08:54:48.376Z,31.03
2018-09-27T08:57:21.822Z,31.93
2018-09-27T08:59:55.295Z,30.77
2018-09-27T09:02:28.739Z,31.60
2018-09-27T09:05:02.200Z,30.57
2018-09-27T09:07:35.664Z,31.23
2018-09-27T09:10:09.150Z,31.10
2018-09-27T09:12:42.656Z,31.67
2018-09-27T09:15:16.123Z,30.70
2018-09-27T09:17:49.576Z,30.67
2018-09-27T09:20:23.073Z,31.37
2018-09-27T09:22:56.535Z,30.43
2018-09-27T09:25:30.029Z,43.43
2018-09-27T09:28:03.541Z,30.40
2018-09-27T09:30:37.002Z,30.73
2018-09-27T09:33:10.455Z,30.57
2018-09-27T09:35:44.016Z,30.70
2018-09-27T09:38:17.405Z,30.23
2018-09-27T09:40:50.931Z,31.23
2018-09-27T09:43:24.388Z,30.80
2018-09-27T09:45:57.889Z,30.90
2018-09-27T09:48:31.513Z,30.75
2018-09-27T09:51:05.033Z,30.48
2018-09-27T09:53:38.512Z,30.03
2018-09-27T09:56:12.007Z,30.62
2018-09-27T09:58:45.487Z,29.63
2018-09-27T10:01:18.974Z,30.48
2018-09-27T10:03:52.481Z,31.00
2018-09-27T10:06:26.016Z,30.50
2018-09-27T10:09:01.672Z,31.12
2018-09-27T10:11:35.145Z,31.02
2018-09-27T10:14:08.709Z,30.35
2018-09-27T10:16:42.212Z,30.32
2018-09-27T10:19:16.290Z,30.82
2018-09-27T10:21:49.888Z,30.55
2018-09-27T10:24:23.310Z,30.27
2018-09-27T10:26:56.804Z,30.48
2018-09-27T15:26:21.472Z,31.97
2018-09-27T15:28:54.907Z,31.35
2018-09-27T15:31:28.633Z,31.35
2018-09-27T15:34:02.052Z,31.85
2018-09-27T15:36:35.598Z,31.57
2018-09-27T15:39:09.047Z,31.70
2018-09-27T15:41:42.572Z,31.73
2018-09-27T15:44:16.187Z,31.17
2018-09-27T15:46:49.689Z,32.23
2018-09-27T15:49:23.123Z,31.40
2018-09-27T15:51:56.584Z,32.42
2018-09-27T15:54:29.995Z,31.62
2018-09-27T15:57:03.425Z,31.85
2018-09-27T15:59:36.860Z,31.65
2018-09-27T16:02:10.312Z,32.05
2018-09-27T16:04:43.741Z,31.23
2018-09-27T16:07:17.173Z,31.82
2018-09-27T16:09:50.588Z,32.95
2018-09-27T16:12:24.049Z,32.73
2018-09-27T16:14:57.576Z,32.10
2018-09-27T16:17:30.968Z,31.95
2018-09-27T16:20:04.688Z,31.33
2018-09-27T16:22:38.124Z,34.35
2018-09-27T16:25:11.555Z,34.83
2018-09-27T16:27:44.984Z,35.73
2018-09-27T16:30:18.401Z,34.83
2018-09-27T16:32:51.833Z,34.98
2018-09-27T16:35:25.300Z,34.38
2018-09-27T16:37:58.737Z,34.18
2018-09-27T16:40:32.273Z,33.55
2018-09-27T16:43:05.637Z,33.50
2018-09-27T16:45:39.371Z,33.18
2018-09-27T16:48:12.804Z,33.05
2018-09-27T16:50:46.240Z,32.83
2018-09-27T16:53:19.679Z,32.23
2018-09-27T16:55:53.120Z,32.23
2018-09-27T16:58:26.560Z,32.23
2018-09-27T17:01:01.056Z,32.85
2018-09-27T17:03:34.467Z,32.80
2018-09-27T17:06:07.916Z,32.17
2018-09-27T17:08:41.324Z,31.65
2018-09-27T17:11:14.848Z,32.28
2018-09-27T17:13:48.208Z,32.67
2018-09-27T17:16:21.641Z,32.03
2018-09-27T17:18:55.122Z,32.48
2018-09-27T17:21:28.509Z,32.60
2018-09-27T17:24:01.940Z,32.93
2018-09-27T22:51:49.041Z,30.43
2018-09-27T22:54:22.554Z,30.92
2018-09-27T22:56:56.062Z,30.65
2018-09-27T23:00:33.698Z,31.12
2018-09-27T23:03:07.277Z,31.00
2018-09-27T23:05:40.756Z,31.82
2018-09-27T23:08:14.258Z,31.25
2018-09-27T23:10:47.747Z,31.42
2018-09-27T23:13:21.299Z,31.35
2018-09-27T23:15:54.854Z,30.75
2018-09-27T23:18:28.350Z,31.12
2018-09-27T23:21:01.864Z,31.45
2018-09-27T23:23:35.357Z,31.00
2018-09-27T23:26:08.868Z,30.97
2018-09-27T23:28:42.341Z,31.37
2018-09-27T23:31:15.851Z,31.25
2018-09-27T23:33:49.392Z,30.45
2018-09-27T23:36:22.815Z,31.85
2018-09-27T23:38:56.300Z,31.87
2018-09-27T23:41:29.755Z,30.95
2018-09-27T23:44:03.216Z,31.48
2018-09-27T23:46:36.868Z,31.33
2018-09-27T23:49:10.328Z,30.80
2018-09-27T23:51:43.766Z,30.62
2018-09-27T23:54:17.210Z,30.85
2018-09-27T23:56:50.633Z,31.37
2018-09-27T23:59:24.090Z,30.97
